SYRK1: Arkansas R at Syracuse, KS

Data processed at Sun May 28 2017 22:27


All information presented herein is the property of the government of the United States of America and may be revised or deleted at any time without prior notice.
Dissemination of this information without the expressed written consent of the Public Affairs Office, Tulsa District U.S. Army Corps of Engineers is strictly prohibited.
These data are gathered electronically and, as presented, have not undergone any form of quality control. These data are not guaranteed to be valid or correct.
Go to home page.
Go to station list.
Go to home page.

Upstream stations:


Previous Day
Next Day
Current Day
    
SHEF ID:       SYRK1     ARKANSAS R AT SYRACUSE, KS
STATION TYPE:  

               PRECIP     STAGE  RIV-FLOW  BAT-LOAD
                   in        ft       cfs      volt
              Ccp-Rev   Ccp-Rev   Ccp-Rev   Ccp-Rev
(US/Central)
05/28 00:00      0.00      4.81       177     12.71
05/28 01:00      0.00      4.81       177     12.71
05/28 02:00      0.00      4.81       177     12.65
05/28 03:00      0.00      4.81       177     12.65
05/28 04:00      0.00      4.80       175     11.72
05/28 05:00      0.00      4.80       175     12.60
05/28 06:00      0.00      4.79       174     12.60
05/28 07:00      0.00      4.79       174     12.60
05/28 08:00      0.00      4.80       175     12.60
05/28 09:00      0.00      4.78       172     12.77
05/28 10:00      0.00      4.77       171     13.07
05/28 11:00      0.00      4.77       171     13.88
05/28 12:00      0.00      4.77       171     13.48
05/28 13:00      0.00      4.76       169     13.48
05/28 14:00      0.00      4.75       168     13.18
05/28 15:00      0.00      4.76       169     13.53
05/28 16:00      0.00      4.74       166     13.48
05/28 17:00      0.00      4.76       169     13.18
05/28 18:00      0.00      4.75       168     13.18
05/28 19:00      0.00      4.76       169     13.07
05/28 20:00      0.00      4.75       168     13.00
05/28 21:00      0.00      4.75       168     12.89
05/28 22:00      ----      ----      ----      ----
05/28 23:00      ----      ----      ----      ----